createdAt,value
2017-01-08T00:02:30.661Z,0
2017-01-08T00:03:12.381Z,0
2017-01-08T00:03:54.196Z,0
2017-01-08T00:04:35.977Z,0
2017-01-08T00:07:17.537Z,0
2017-01-08T00:07:59.303Z,0
2017-01-08T00:08:40.717Z,0
2017-01-08T00:09:22.613Z,0
2017-01-08T00:10:03.970Z,0
2017-01-08T00:10:45.725Z,0
2017-01-08T00:13:22.203Z,0
2017-01-08T00:14:03.970Z,0
2017-01-08T00:14:45.777Z,0
2017-01-08T00:15:27.588Z,0
2017-01-08T00:16:09.395Z,0
2017-01-08T00:18:50.548Z,0
2017-01-08T00:19:32.040Z,0
2017-01-08T00:20:13.455Z,0
2017-01-08T00:20:55.122Z,0
2017-01-08T00:21:36.970Z,0
2017-01-08T00:22:18.760Z,0
2017-01-08T00:24:49.588Z,0
2017-01-08T00:25:31.426Z,0
2017-01-08T00:26:13.160Z,0
2017-01-08T00:28:28.370Z,0
2017-01-08T00:29:10.144Z,0
2017-01-08T00:29:51.987Z,0
2017-01-08T00:30:33.767Z,0
2017-01-08T00:31:15.494Z,0
2017-01-08T00:33:57.495Z,0
2017-01-08T00:36:18.260Z,0
2017-01-08T00:37:00.039Z,0
2017-01-08T00:39:41.134Z,0
2017-01-08T00:40:22.908Z,0
2017-01-08T00:41:04.565Z,0
2017-01-08T00:41:46.279Z,0
2017-01-08T00:42:27.951Z,0
2017-01-08T00:46:37.750Z,0
2017-01-08T00:47:19.492Z,0
2017-01-08T00:48:00.956Z,0
2017-01-08T00:48:42.697Z,0
2017-01-08T00:49:23.984Z,0
2017-01-08T00:50:05.492Z,0
2017-01-08T00:50:46.978Z,0
2017-01-08T00:51:28.691Z,0
2017-01-08T00:52:10.231Z,0
2017-01-08T00:52:52.104Z,0
2017-01-08T00:53:33.934Z,0
2017-01-08T00:54:15.738Z,0
2017-01-08T00:54:57.586Z,0
2017-01-08T00:55:39.381Z,0
2017-01-08T00:56:21.274Z,0
2017-01-08T00:57:03.087Z,0
2017-01-08T00:57:44.900Z,0
2017-01-08T01:00:05.498Z,0
2017-01-08T01:02:20.717Z,0
2017-01-08T01:03:02.273Z,0
2017-01-08T01:05:17.887Z,0
2017-01-08T01:05:59.140Z,0
2017-01-08T01:06:40.955Z,0
2017-01-08T01:10:56.365Z,0
2017-01-08T01:11:38.164Z,0
2017-01-08T01:12:19.919Z,0
2017-01-08T01:13:01.691Z,0
2017-01-08T01:19:00.978Z,0
2017-01-08T01:21:21.921Z,0
2017-01-08T01:22:03.431Z,0
2017-01-08T01:22:45.321Z,0
2017-01-08T01:25:26.927Z,0
2017-01-08T01:26:08.734Z,0
2017-01-08T01:26:50.591Z,0
2017-01-08T01:27:32.214Z,0
2017-01-08T01:33:31.718Z,0
2017-01-08T01:34:13.251Z,0
2017-01-08T01:34:54.922Z,0
2017-01-08T01:35:36.711Z,0
2017-01-08T01:36:18.471Z,0
2017-01-08T01:36:59.821Z,0
2017-01-08T01:37:41.310Z,0
2017-01-08T01:38:22.631Z,0
2017-01-08T01:39:03.954Z,0
2017-01-08T01:41:24.670Z,0
2017-01-08T01:42:06.559Z,0
2017-01-08T01:42:48.335Z,0
2017-01-08T01:43:30.165Z,0
2017-01-08T01:46:01.136Z,0
2017-01-08T01:46:42.901Z,0
2017-01-08T01:47:24.322Z,0
2017-01-08T01:49:55.276Z,0
2017-01-08T01:50:37.042Z,0
2017-01-08T01:51:18.824Z,0
2017-01-08T01:53:49.866Z,0
2017-01-08T01:54:31.391Z,0
2017-01-08T01:55:13.116Z,0
2017-01-08T01:55:54.956Z,0
2017-01-08T01:56:36.726Z,0
2017-01-08T01:57:18.015Z,0
2017-01-08T01:57:59.883Z,0
2017-01-08T01:58:41.690Z,0
2017-01-08T01:59:23.548Z,0
2017-01-08T02:00:05.377Z,0
2017-01-08T02:00:47.052Z,0
2017-01-08T02:01:28.554Z,0
2017-01-08T02:05:47.668Z,0
2017-01-08T02:06:28.188Z,0
2017-01-08T02:07:08.720Z,0
2017-01-08T02:07:49.255Z,0
2017-01-08T02:08:29.777Z,0
2017-01-08T02:09:10.288Z,0
2017-01-08T02:09:50.809Z,0
2017-01-08T02:10:31.342Z,0
2017-01-08T02:11:11.858Z,0
2017-01-08T02:11:52.388Z,0
2017-01-08T02:12:32.924Z,0
2017-01-08T02:13:13.455Z,0
2017-01-08T02:13:53.991Z,0
2017-01-08T02:14:34.513Z,0
2017-01-08T02:15:15.033Z,0
2017-01-08T02:15:55.565Z,0
2017-01-08T02:16:36.099Z,0
2017-01-08T02:17:16.603Z,0
2017-01-08T02:17:57.125Z,0
2017-01-08T02:18:37.660Z,0
2017-01-08T02:19:18.197Z,0
2017-01-08T02:19:58.700Z,0
2017-01-08T02:20:39.232Z,0
2017-01-08T02:21:19.748Z,0
2017-01-08T02:22:00.288Z,0
2017-01-08T02:22:40.809Z,0
2017-01-08T02:23:21.334Z,0
2017-01-08T02:24:01.854Z,0
2017-01-08T02:24:42.383Z,0
2017-01-08T02:25:22.914Z,0
2017-01-08T02:26:03.444Z,0
2017-01-08T02:26:43.976Z,0
2017-01-08T02:27:24.491Z,0
2017-01-08T02:28:05.018Z,0
2017-01-08T02:28:45.550Z,0
2017-01-08T02:29:26.082Z,0
2017-01-08T02:30:06.614Z,0
2017-01-08T02:30:47.149Z,0
2017-01-08T02:31:27.672Z,0
2017-01-08T02:32:08.199Z,0
2017-01-08T02:32:48.721Z,0
2017-01-08T02:33:29.241Z,0
2017-01-08T02:34:09.770Z,0
2017-01-08T02:34:50.297Z,0
2017-01-08T02:35:30.826Z,0
2017-01-08T02:36:11.352Z,0
2017-01-08T02:36:51.872Z,0
2017-01-08T02:37:32.402Z,0
2017-01-08T02:38:12.934Z,0
2017-01-08T02:38:53.464Z,0
2017-01-08T02:39:33.995Z,0
2017-01-08T02:40:14.508Z,0
2017-01-08T02:40:55.041Z,0
2017-01-08T02:41:35.588Z,0
2017-01-08T02:42:16.096Z,0
2017-01-08T02:42:56.622Z,0
2017-01-08T02:43:37.159Z,0
2017-01-08T02:44:17.678Z,0
2017-01-08T02:44:58.220Z,0
2017-01-08T02:45:38.747Z,0
2017-01-08T02:46:19.286Z,0
2017-01-08T02:46:59.779Z,0
2017-01-08T02:47:40.327Z,0
2017-01-08T02:48:20.833Z,0
2017-01-08T02:49:01.362Z,0
2017-01-08T02:49:41.882Z,0
2017-01-08T02:50:22.437Z,0
2017-01-08T02:51:02.970Z,0
2017-01-08T02:51:43.485Z,0
2017-01-08T02:52:24.024Z,0
2017-01-08T02:53:04.538Z,0
2017-01-08T02:53:45.071Z,0
2017-01-08T02:54:25.626Z,0
2017-01-08T02:55:06.100Z,0
2017-01-08T02:55:46.647Z,0
2017-01-08T02:56:27.172Z,0
2017-01-08T02:57:07.676Z,0
2017-01-08T02:57:48.178Z,0
2017-01-08T02:58:28.654Z,0
2017-01-08T02:59:09.147Z,0
2017-01-08T02:59:49.643Z,0
2017-01-08T03:00:30.164Z,0
2017-01-08T03:01:10.709Z,0
2017-01-08T03:01:51.226Z,0
2017-01-08T03:02:31.768Z,0
2017-01-08T03:03:12.298Z,0
2017-01-08T03:03:52.849Z,0
2017-01-08T03:04:33.380Z,0
2017-01-08T03:05:13.907Z,0
2017-01-08T03:05:54.423Z,0
2017-01-08T03:06:34.955Z,0
2017-01-08T03:07:15.483Z,0
2017-01-08T03:07:56.011Z,0
2017-01-08T03:08:36.489Z,0
2017-01-08T03:09:16.961Z,0
2017-01-08T03:09:57.477Z,0
2017-01-08T03:10:37.961Z,0
2017-01-08T03:11:18.443Z,0
2017-01-08T03:11:58.963Z,0
2017-01-08T03:12:39.480Z,0
2017-01-08T03:13:20.006Z,0
2017-01-08T03:14:00.517Z,0
2017-01-08T03:14:41.039Z,0
2017-01-08T03:15:21.497Z,0
2017-01-08T03:16:02.002Z,0
2017-01-08T03:16:42.508Z,0
2017-01-08T03:17:23.041Z,0
2017-01-08T03:18:03.573Z,0
2017-01-08T03:18:44.042Z,0
2017-01-08T03:19:24.563Z,0
2017-01-08T03:20:05.019Z,0
2017-01-08T03:20:45.509Z,0
2017-01-08T03:21:25.987Z,0
2017-01-08T03:22:06.494Z,0
2017-01-08T03:22:46.974Z,0
2017-01-08T03:23:27.429Z,0
2017-01-08T03:24:07.912Z,0
2017-01-08T03:24:48.396Z,0
2017-01-08T03:25:28.910Z,0
2017-01-08T03:26:09.390Z,0
2017-01-08T03:26:49.864Z,0
2017-01-08T03:27:30.379Z,0
2017-01-08T03:28:10.837Z,0
2017-01-08T03:28:51.358Z,0
2017-01-08T03:29:31.894Z,0
2017-01-08T03:30:12.407Z,0
2017-01-08T03:30:52.919Z,0
2017-01-08T03:31:33.581Z,0
2017-01-08T03:32:14.067Z,0
2017-01-08T03:32:54.557Z,0
2017-01-08T03:33:35.048Z,0
2017-01-08T03:34:15.553Z,0
2017-01-08T03:34:56.048Z,0
2017-01-08T03:35:36.562Z,0
2017-01-08T03:36:17.014Z,0
2017-01-08T03:36:57.497Z,0
2017-01-08T03:37:37.974Z,0
2017-01-08T03:38:18.494Z,0
2017-01-08T03:38:58.940Z,0
2017-01-08T03:39:39.472Z,0
2017-01-08T03:40:19.903Z,0
2017-01-08T03:41:00.388Z,0
2017-01-08T03:41:40.902Z,0
2017-01-08T03:42:21.366Z,0
2017-01-08T03:43:01.845Z,0
2017-01-08T03:43:42.347Z,0
2017-01-08T03:44:22.842Z,0
2017-01-08T03:45:03.398Z,0
2017-01-08T03:45:43.825Z,0
2017-01-08T03:46:24.344Z,0
2017-01-08T03:47:04.800Z,0
2017-01-08T03:47:45.276Z,0
2017-01-08T03:48:25.785Z,0
2017-01-08T03:49:06.234Z,0
2017-01-08T03:49:46.712Z,0
2017-01-08T03:50:27.207Z,0
2017-01-08T03:51:07.710Z,0
2017-01-08T03:51:48.192Z,0
2017-01-08T03:52:28.718Z,0
2017-01-08T03:53:09.247Z,0
2017-01-08T03:53:49.785Z,0
2017-01-08T03:54:30.349Z,0
2017-01-08T03:55:10.886Z,0
2017-01-08T03:55:51.399Z,0
2017-01-08T03:56:31.921Z,0
2017-01-08T03:57:12.458Z,0
2017-01-08T03:57:52.992Z,0
2017-01-08T03:58:33.465Z,0
2017-01-08T03:59:13.956Z,0
2017-01-08T03:59:54.488Z,0
2017-01-08T04:00:34.970Z,0
2017-01-08T04:01:15.430Z,0
2017-01-08T04:01:56.001Z,0
2017-01-08T04:02:36.508Z,0
2017-01-08T04:03:17.008Z,0
2017-01-08T04:03:57.528Z,0
2017-01-08T04:04:38.046Z,0
2017-01-08T04:05:18.546Z,0
2017-01-08T04:05:59.028Z,0
2017-01-08T04:06:39.550Z,0
2017-01-08T04:07:20.023Z,0
2017-01-08T04:08:00.550Z,0
2017-01-08T04:08:41.082Z,0
2017-01-08T04:09:21.583Z,0
2017-01-08T04:10:02.098Z,0
2017-01-08T04:10:42.612Z,0
2017-01-08T04:11:23.138Z,0
2017-01-08T04:12:03.672Z,0
2017-01-08T04:12:44.200Z,0
2017-01-08T04:13:24.732Z,0
2017-01-08T04:14:05.269Z,0
2017-01-08T04:14:45.794Z,0
2017-01-08T04:15:26.323Z,0
2017-01-08T04:16:06.866Z,0
2017-01-08T04:16:47.410Z,0
2017-01-08T04:17:27.897Z,0
2017-01-08T04:18:08.404Z,0
2017-01-08T04:18:48.909Z,0
2017-01-08T04:19:29.414Z,0
2017-01-08T04:20:09.955Z,0
2017-01-08T04:20:50.442Z,0
2017-01-08T04:21:30.952Z,0
2017-01-08T04:22:11.462Z,0
2017-01-08T04:22:51.959Z,0
2017-01-08T04:23:32.507Z,0
2017-01-08T04:24:13.029Z,0
2017-01-08T04:24:53.539Z,0
2017-01-08T04:25:34.065Z,0
2017-01-08T04:26:14.541Z,0
2017-01-08T04:26:55.074Z,0
2017-01-08T04:27:35.580Z,0
2017-01-08T04:28:16.068Z,0
2017-01-08T04:28:56.586Z,0
2017-01-08T04:29:37.096Z,0
2017-01-08T04:30:17.635Z,0
2017-01-08T04:30:58.140Z,0
2017-01-08T04:31:38.645Z,0
2017-01-08T04:32:19.170Z,0
2017-01-08T04:32:59.712Z,0
2017-01-08T04:33:40.242Z,0
2017-01-08T04:34:20.752Z,0
2017-01-08T04:35:01.263Z,0
2017-01-08T04:35:41.767Z,0
2017-01-08T04:36:22.276Z,0
2017-01-08T04:37:02.805Z,0
2017-01-08T04:37:43.348Z,0
2017-01-08T04:38:23.835Z,0
2017-01-08T04:39:04.364Z,0
2017-01-08T04:39:44.887Z,0
2017-01-08T04:40:25.437Z,0
2017-01-08T04:41:05.949Z,0
2017-01-08T04:41:46.481Z,0
2017-01-08T04:42:27.031Z,0
2017-01-08T04:43:07.546Z,0
2017-01-08T04:43:48.072Z,0
2017-01-08T04:44:28.602Z,0
2017-01-08T04:45:09.131Z,0
2017-01-08T04:45:49.666Z,0
2017-01-08T04:46:30.233Z,0
2017-01-08T04:47:10.760Z,0
2017-01-08T04:47:51.300Z,0
2017-01-08T04:48:31.857Z,0
2017-01-08T04:49:12.411Z,0
2017-01-08T04:49:52.921Z,0
2017-01-08T04:50:33.448Z,0
2017-01-08T04:51:13.963Z,0
2017-01-08T04:51:54.474Z,0
2017-01-08T04:52:35.008Z,0
2017-01-08T04:53:15.516Z,0
2017-01-08T04:53:56.039Z,0
2017-01-08T04:54:36.557Z,0
2017-01-08T04:55:17.067Z,0
2017-01-08T04:55:57.589Z,0
2017-01-08T04:56:38.112Z,0
2017-01-08T04:57:18.631Z,0
2017-01-08T04:57:59.179Z,0
2017-01-08T04:58:39.712Z,0
2017-01-08T04:59:20.220Z,0
2017-01-08T05:00:00.798Z,0
2017-01-08T05:00:41.293Z,0
2017-01-08T05:01:21.833Z,0
2017-01-08T05:02:02.375Z,0
2017-01-08T05:02:42.921Z,0
2017-01-08T05:03:23.483Z,0
2017-01-08T05:04:04.024Z,0
2017-01-08T05:04:44.555Z,0
2017-01-08T05:05:25.105Z,0
2017-01-08T05:06:05.620Z,0
2017-01-08T05:06:46.122Z,0
2017-01-08T05:07:26.632Z,0
2017-01-08T05:08:07.133Z,0
2017-01-08T05:08:47.701Z,0
2017-01-08T05:09:28.153Z,0
2017-01-08T05:10:08.682Z,0
2017-01-08T05:10:49.163Z,0
2017-01-08T05:11:29.707Z,0
2017-01-08T05:12:10.161Z,0
2017-01-08T05:12:50.667Z,0
2017-01-08T05:13:31.158Z,0
2017-01-08T05:14:11.657Z,0
2017-01-08T05:14:52.183Z,0
2017-01-08T05:15:32.678Z,0
2017-01-08T05:16:13.180Z,0
2017-01-08T05:16:53.680Z,0
2017-01-08T05:17:34.204Z,0
2017-01-08T05:18:14.740Z,0
2017-01-08T05:18:55.268Z,0
2017-01-08T05:19:35.853Z,0
2017-01-08T05:20:16.320Z,0
2017-01-08T05:20:56.828Z,0
2017-01-08T05:21:37.345Z,0
2017-01-08T05:22:17.878Z,0
2017-01-08T05:22:58.400Z,0
2017-01-08T05:23:38.922Z,0
2017-01-08T05:24:19.453Z,0
2017-01-08T05:24:59.966Z,0
2017-01-08T05:25:40.554Z,0
2017-01-08T05:26:21.051Z,0
2017-01-08T05:27:01.555Z,0
2017-01-08T05:27:42.133Z,0
2017-01-08T05:28:22.636Z,0
2017-01-08T05:29:03.160Z,0
2017-01-08T05:29:43.664Z,0
2017-01-08T05:30:24.215Z,0
2017-01-08T05:31:04.736Z,0
2017-01-08T05:31:45.300Z,0
2017-01-08T05:32:25.853Z,0
2017-01-08T05:33:06.323Z,0
2017-01-08T05:33:46.815Z,0
2017-01-08T05:34:27.339Z,0
2017-01-08T05:35:07.881Z,0
2017-01-08T05:35:48.411Z,0
2017-01-08T05:36:28.959Z,0
2017-01-08T05:37:09.695Z,0
2017-01-08T05:37:50.085Z,0
2017-01-08T05:38:30.661Z,0
2017-01-08T05:39:11.195Z,0
2017-01-08T05:39:51.632Z,0
2017-01-08T05:40:32.184Z,0
2017-01-08T05:41:12.796Z,0
2017-01-08T05:41:53.505Z,0
2017-01-08T05:42:33.916Z,0
2017-01-08T05:43:14.433Z,0
2017-01-08T05:43:54.925Z,0
2017-01-08T05:44:35.442Z,0
2017-01-08T05:45:15.966Z,0
2017-01-08T05:45:56.447Z,0
2017-01-08T05:46:36.950Z,0
2017-01-08T05:47:17.481Z,0
2017-01-08T05:47:58.021Z,0
2017-01-08T05:48:38.538Z,0
2017-01-08T05:49:19.062Z,0
2017-01-08T05:49:59.580Z,0
2017-01-08T05:50:40.069Z,0
2017-01-08T05:51:20.573Z,0
2017-01-08T05:52:01.061Z,0
2017-01-08T05:52:41.552Z,0
2017-01-08T05:53:22.040Z,0
2017-01-08T05:54:02.553Z,0
2017-01-08T05:54:43.059Z,0
2017-01-08T05:55:23.593Z,0
2017-01-08T05:56:04.124Z,0
2017-01-08T05:56:44.658Z,0
2017-01-08T05:57:25.185Z,0
2017-01-08T05:58:05.750Z,0
2017-01-08T05:58:46.265Z,0
2017-01-08T05:59:26.750Z,0
2017-01-08T06:00:07.248Z,0
2017-01-08T06:00:47.737Z,0
2017-01-08T06:01:28.239Z,0
2017-01-08T06:02:08.750Z,0
2017-01-08T06:02:49.261Z,0
2017-01-08T06:03:29.791Z,0
2017-01-08T06:04:10.310Z,0
2017-01-08T06:04:50.827Z,0
2017-01-08T06:05:31.329Z,0
2017-01-08T06:06:11.866Z,0
2017-01-08T06:06:52.397Z,0
2017-01-08T06:07:32.934Z,0
2017-01-08T06:08:13.452Z,0
2017-01-08T06:08:53.962Z,0
2017-01-08T06:09:34.454Z,0
2017-01-08T06:10:14.962Z,0
2017-01-08T06:10:55.484Z,0
2017-01-08T06:11:36.020Z,0
2017-01-08T06:12:16.527Z,0
2017-01-08T06:12:57.046Z,0
2017-01-08T06:13:37.530Z,0
2017-01-08T06:14:18.040Z,0
2017-01-08T06:14:58.572Z,0
2017-01-08T06:15:39.081Z,0
2017-01-08T06:16:19.610Z,0
2017-01-08T06:17:00.104Z,0
2017-01-08T06:17:40.629Z,0
2017-01-08T06:18:21.162Z,0
2017-01-08T06:19:01.694Z,0
2017-01-08T06:19:42.232Z,0
2017-01-08T06:20:22.775Z,0
2017-01-08T06:21:03.296Z,0
2017-01-08T06:21:43.841Z,0
2017-01-08T06:22:24.345Z,0
2017-01-08T06:24:40.028Z,0
2017-01-08T06:25:22.125Z,0
2017-01-08T06:26:02.675Z,0
2017-01-08T06:26:43.148Z,0
2017-01-08T06:27:25.538Z,0
2017-01-08T06:28:06.039Z,0
2017-01-08T06:28:46.626Z,0
2017-01-08T06:29:27.075Z,0
2017-01-08T06:30:07.557Z,0
2017-01-08T06:30:48.059Z,0
2017-01-08T06:31:28.557Z,0
2017-01-08T06:32:09.056Z,0
2017-01-08T06:32:49.527Z,0
2017-01-08T06:33:30.018Z,0
2017-01-08T06:34:10.500Z,0
2017-01-08T06:34:51.171Z,0
2017-01-08T06:35:31.644Z,0
2017-01-08T06:36:12.180Z,0
2017-01-08T06:36:52.699Z,0
2017-01-08T06:37:33.199Z,0
2017-01-08T06:38:13.791Z,0
2017-01-08T06:38:54.686Z,0
2017-01-08T06:39:36.123Z,0
2017-01-08T06:40:16.776Z,0
2017-01-08T06:40:57.344Z,0
2017-01-08T06:41:37.933Z,0
2017-01-08T06:42:19.049Z,0
2017-01-08T06:42:59.125Z,0
2017-01-08T06:43:41.648Z,0
2017-01-08T06:44:22.452Z,0
2017-01-08T06:45:04.759Z,0
2017-01-08T06:45:44.880Z,0
2017-01-08T06:46:25.577Z,0
2017-01-08T06:47:06.757Z,0
2017-01-08T06:47:46.773Z,0
2017-01-08T06:48:28.658Z,0
2017-01-08T06:49:09.109Z,0
2017-01-08T06:49:49.770Z,0
2017-01-08T06:50:30.344Z,0
2017-01-08T06:51:10.823Z,0
2017-01-08T06:51:51.323Z,0
2017-01-08T06:52:31.926Z,0
2017-01-08T06:53:12.751Z,0
2017-01-08T06:55:42.633Z,0
2017-01-08T06:56:26.173Z,0
2017-01-08T06:57:06.633Z,0
2017-01-08T06:57:47.147Z,0
2017-01-08T06:58:33.867Z,0
2017-01-08T06:59:14.371Z,0
2017-01-08T06:59:56.489Z,0
2017-01-08T07:00:38.304Z,0
2017-01-08T07:01:22.405Z,0
2017-01-08T07:02:13.333Z,0
2017-01-08T07:02:54.566Z,0
2017-01-08T07:03:35.094Z,0
2017-01-08T07:04:15.580Z,0
2017-01-08T07:04:56.202Z,0
2017-01-08T07:05:36.615Z,0
2017-01-08T07:06:17.103Z,0
2017-01-08T07:06:57.620Z,0
2017-01-08T07:07:39.063Z,0
2017-01-08T07:08:19.580Z,0
2017-01-08T07:09:00.081Z,0
2017-01-08T07:09:40.552Z,0
2017-01-08T07:10:21.088Z,0
2017-01-08T07:11:01.592Z,0
2017-01-08T07:11:42.115Z,0
2017-01-08T07:12:22.696Z,0
2017-01-08T07:13:03.253Z,0
2017-01-08T07:13:43.760Z,0
2017-01-08T07:14:24.284Z,0
2017-01-08T07:15:04.921Z,0
2017-01-08T07:15:45.453Z,0
2017-01-08T07:16:25.973Z,0
2017-01-08T07:17:06.575Z,0
2017-01-08T07:17:47.111Z,0
2017-01-08T07:18:27.854Z,0
2017-01-08T07:19:08.223Z,0
2017-01-08T07:19:50.474Z,0
2017-01-08T07:20:30.879Z,0
2017-01-08T07:22:58.874Z,0
2017-01-08T07:23:39.387Z,0
2017-01-08T07:24:19.945Z,0
2017-01-08T07:25:00.489Z,0
2017-01-08T07:25:41.060Z,0
2017-01-08T07:26:21.685Z,0
2017-01-08T07:27:02.355Z,0
2017-01-08T07:27:42.887Z,0
2017-01-08T07:28:23.419Z,0
2017-01-08T07:29:03.950Z,0
2017-01-08T07:29:44.611Z,0
2017-01-08T07:30:25.158Z,0
2017-01-08T07:31:05.692Z,0
2017-01-08T07:31:46.169Z,0
2017-01-08T07:32:26.754Z,0
2017-01-08T07:33:07.295Z,0
2017-01-08T07:33:47.780Z,0
2017-01-08T07:34:28.303Z,0
2017-01-08T07:35:08.824Z,0
2017-01-08T07:35:49.362Z,0
2017-01-08T07:36:29.948Z,0
2017-01-08T07:37:10.395Z,0
2017-01-08T07:37:50.967Z,0
2017-01-08T07:38:31.440Z,0
2017-01-08T07:39:12.025Z,0
2017-01-08T07:39:52.606Z,0
2017-01-08T07:40:33.138Z,0
2017-01-08T07:41:13.912Z,0
2017-01-08T07:41:54.413Z,0
2017-01-08T07:42:34.967Z,0
2017-01-08T07:43:15.519Z,0
2017-01-08T07:43:56.119Z,0
2017-01-08T07:44:36.685Z,0
2017-01-08T07:45:17.200Z,0
2017-01-08T07:45:58.035Z,0
2017-01-08T07:46:38.969Z,0
2017-01-08T07:47:20.762Z,5
2017-01-08T07:48:01.856Z,5
2017-01-08T07:48:48.258Z,5
2017-01-08T07:49:29.606Z,5
2017-01-08T07:50:10.241Z,5
2017-01-08T07:50:50.826Z,5
2017-01-08T07:51:32.209Z,5
2017-01-08T07:52:12.937Z,5
2017-01-08T07:52:53.475Z,5
2017-01-08T07:53:33.977Z,5
2017-01-08T07:54:14.923Z,5
2017-01-08T07:54:55.892Z,5
2017-01-08T07:55:36.422Z,5
2017-01-08T07:56:16.951Z,5
2017-01-08T07:56:58.334Z,5
2017-01-08T07:57:39.120Z,5
2017-01-08T07:58:20.044Z,5
2017-01-08T07:59:00.958Z,5
2017-01-08T07:59:41.517Z,5
2017-01-08T08:00:22.188Z,5
2017-01-08T08:01:02.968Z,5
2017-01-08T08:01:43.563Z,5
2017-01-08T08:02:24.099Z,5
2017-01-08T08:03:04.753Z,5
2017-01-08T08:03:45.199Z,5
2017-01-08T08:04:25.824Z,5
2017-01-08T08:05:06.762Z,5
2017-01-08T08:05:47.348Z,5
2017-01-08T08:06:27.832Z,5
2017-01-08T08:07:08.539Z,5
2017-01-08T08:07:50.105Z,5
2017-01-08T08:08:31.226Z,5
2017-01-08T08:09:14.227Z,5
2017-01-08T08:09:56.414Z,10
2017-01-08T08:10:37.664Z,10
2017-01-08T08:11:18.150Z,5
2017-01-08T08:11:58.685Z,10
2017-01-08T08:12:39.257Z,10
2017-01-08T08:13:19.848Z,10
2017-01-08T08:14:00.359Z,10
2017-01-08T08:14:40.846Z,10
2017-01-08T08:15:21.479Z,10
2017-01-08T08:16:01.956Z,10
2017-01-08T08:16:42.489Z,10
2017-01-08T08:17:23.043Z,10
2017-01-08T08:18:03.686Z,15
2017-01-08T08:18:44.315Z,15
2017-01-08T08:19:24.859Z,15
2017-01-08T08:20:06.123Z,15
2017-01-08T08:20:46.681Z,15
2017-01-08T08:21:27.190Z,15
2017-01-08T08:22:07.830Z,15
2017-01-08T08:22:48.390Z,15
2017-01-08T08:23:30.611Z,15
2017-01-08T08:24:11.216Z,15
2017-01-08T08:24:51.629Z,15
2017-01-08T08:25:32.232Z,15
2017-01-08T08:26:12.729Z,15
2017-01-08T08:26:53.295Z,15
2017-01-08T08:27:33.812Z,10
2017-01-08T08:28:14.361Z,10
2017-01-08T08:28:54.897Z,10
2017-01-08T08:29:35.528Z,10
2017-01-08T08:30:18.979Z,15
2017-01-08T08:31:03.205Z,15
2017-01-08T08:31:44.304Z,15
2017-01-08T08:32:25.131Z,15
2017-01-08T08:33:05.674Z,15
2017-01-08T08:33:46.221Z,15
2017-01-08T08:34:27.633Z,15
2017-01-08T08:35:08.533Z,15
2017-01-08T08:35:49.134Z,20
2017-01-08T08:36:29.636Z,20
2017-01-08T08:37:11.082Z,25
2017-01-08T08:37:51.557Z,25
2017-01-08T08:38:32.003Z,25
2017-01-08T08:39:12.649Z,25
2017-01-08T08:39:53.184Z,25
2017-01-08T08:40:34.235Z,30
2017-01-08T08:41:15.489Z,30
2017-01-08T08:41:56.822Z,30
2017-01-08T08:42:37.471Z,30
2017-01-08T08:43:18.923Z,30
2017-01-08T08:43:59.629Z,25
2017-01-08T08:44:40.637Z,25
2017-01-08T08:45:21.269Z,25
2017-01-08T08:46:01.790Z,25
2017-01-08T08:46:42.342Z,30
2017-01-08T08:47:23.541Z,35
2017-01-08T08:48:04.055Z,40
2017-01-08T08:48:44.627Z,40
2017-01-08T08:49:25.162Z,40
2017-01-08T08:50:05.688Z,40
2017-01-08T08:50:46.221Z,40
2017-01-08T08:51:26.849Z,40
2017-01-08T08:52:07.336Z,40
2017-01-08T08:52:47.873Z,35
2017-01-08T08:53:28.382Z,40
2017-01-08T08:54:08.919Z,40
2017-01-08T08:54:49.457Z,45
2017-01-08T08:55:29.997Z,45
2017-01-08T08:56:10.490Z,50
2017-01-08T08:56:50.979Z,50
2017-01-08T08:57:31.527Z,45
2017-01-08T08:58:12.076Z,40
2017-01-08T08:58:52.588Z,40
2017-01-08T08:59:33.099Z,45
2017-01-08T09:00:13.583Z,40
2017-01-08T09:00:54.181Z,40
2017-01-08T09:01:34.710Z,35
2017-01-08T09:02:15.279Z,35
2017-01-08T09:02:56.502Z,30
2017-01-08T09:03:37.880Z,35
2017-01-08T09:04:19.283Z,40
2017-01-08T09:04:59.832Z,45
2017-01-08T09:05:40.253Z,45
2017-01-08T09:06:21.453Z,50
2017-01-08T09:07:01.960Z,55
2017-01-08T09:07:42.429Z,60
2017-01-08T09:08:23.485Z,65
2017-01-08T09:09:04.191Z,65
2017-01-08T09:09:44.698Z,60
2017-01-08T09:10:25.182Z,50
2017-01-08T09:11:05.903Z,50
2017-01-08T09:11:46.454Z,50
2017-01-08T09:12:27.006Z,50
2017-01-08T09:13:07.527Z,50
2017-01-08T09:13:48.149Z,50
2017-01-08T09:14:28.651Z,55
2017-01-08T09:15:09.658Z,65
2017-01-08T09:15:50.179Z,80
2017-01-08T09:16:30.740Z,100
2017-01-08T09:17:11.296Z,95
2017-01-08T09:17:51.758Z,90
2017-01-08T09:18:32.261Z,80
2017-01-08T09:19:12.953Z,70
2017-01-08T09:19:53.359Z,70
2017-01-08T09:20:33.850Z,65
2017-01-08T09:21:14.350Z,55
2017-01-08T09:21:54.871Z,55
2017-01-08T09:22:35.384Z,55
2017-01-08T09:23:15.917Z,55
2017-01-08T09:23:56.435Z,50
2017-01-08T09:24:36.951Z,50
2017-01-08T09:25:17.478Z,50
2017-01-08T09:25:57.980Z,45
2017-01-08T09:26:38.524Z,50
2017-01-08T09:27:19.050Z,60
2017-01-08T09:27:59.549Z,65
2017-01-08T09:28:40.100Z,65
2017-01-08T09:29:20.627Z,55
2017-01-08T09:30:01.162Z,50
2017-01-08T09:30:41.691Z,45
2017-01-08T09:31:22.225Z,55
2017-01-08T09:32:02.752Z,60
2017-01-08T09:32:43.276Z,45
2017-01-08T09:33:23.821Z,40
2017-01-08T09:34:06.247Z,45
2017-01-08T09:34:46.765Z,40
2017-01-08T09:35:27.289Z,40
2017-01-08T09:36:07.772Z,45
2017-01-08T09:36:48.267Z,50
2017-01-08T09:37:28.829Z,55
2017-01-08T09:38:09.338Z,60
2017-01-08T09:38:50.066Z,55
2017-01-08T09:39:31.052Z,50
2017-01-08T09:40:11.534Z,50
2017-01-08T09:40:52.080Z,45
2017-01-08T09:41:32.588Z,40
2017-01-08T09:42:13.468Z,45
2017-01-08T09:42:54.056Z,45
2017-01-08T09:43:34.981Z,45
2017-01-08T09:44:15.910Z,50
2017-01-08T09:44:56.915Z,45
2017-01-08T09:45:39.087Z,40
2017-01-08T09:46:19.659Z,35
2017-01-08T09:47:01.199Z,35
2017-01-08T09:47:41.715Z,30
2017-01-08T09:48:22.325Z,35
2017-01-08T09:49:02.986Z,35
2017-01-08T09:49:43.530Z,40
2017-01-08T09:50:24.423Z,40
2017-01-08T09:51:04.937Z,35
2017-01-08T09:51:45.506Z,35
2017-01-08T09:52:26.326Z,35
2017-01-08T09:53:06.861Z,35
2017-01-08T09:53:47.611Z,35
2017-01-08T09:54:28.144Z,35
2017-01-08T09:55:08.684Z,35
2017-01-08T09:55:49.836Z,35
2017-01-08T09:56:30.555Z,35
2017-01-08T09:57:12.171Z,35
2017-01-08T09:57:53.379Z,40
2017-01-08T09:58:36.751Z,40
2017-01-08T09:59:20.741Z,35
2017-01-08T10:00:01.312Z,35
2017-01-08T10:00:42.056Z,35
2017-01-08T10:01:24.771Z,35
2017-01-08T10:02:05.901Z,35
2017-01-08T10:02:46.427Z,30
2017-01-08T10:03:27.200Z,30
2017-01-08T10:04:08.275Z,35
2017-01-08T10:04:48.888Z,35
2017-01-08T10:05:30.437Z,35
2017-01-08T10:06:11.394Z,30
2017-01-08T10:06:52.011Z,30
2017-01-08T10:07:32.833Z,30
2017-01-08T10:08:13.439Z,30
2017-01-08T10:08:53.951Z,30
2017-01-08T10:09:34.819Z,30
2017-01-08T10:10:15.495Z,25
2017-01-08T10:10:56.027Z,25
2017-01-08T10:11:37.276Z,25
2017-01-08T10:12:18.644Z,25
2017-01-08T10:12:59.082Z,25
2017-01-08T10:13:39.825Z,25
2017-01-08T10:14:20.613Z,25
2017-01-08T10:15:01.577Z,25
2017-01-08T10:15:42.226Z,25
2017-01-08T10:16:23.225Z,25
2017-01-08T10:17:04.051Z,25
2017-01-08T10:17:44.844Z,30
2017-01-08T10:18:25.634Z,30
2017-01-08T10:19:06.840Z,30
2017-01-08T10:19:47.811Z,30
2017-01-08T10:20:28.395Z,30
2017-01-08T10:21:08.875Z,30
2017-01-08T10:21:49.875Z,30
2017-01-08T10:22:30.778Z,30
2017-01-08T10:23:11.551Z,30
2017-01-08T10:23:52.000Z,30
2017-01-08T10:24:32.663Z,30
2017-01-08T10:25:13.156Z,30
2017-01-08T10:25:53.870Z,35
2017-01-08T10:26:34.332Z,35
2017-01-08T10:27:15.100Z,35
2017-01-08T10:27:55.604Z,35
2017-01-08T10:28:36.205Z,35
2017-01-08T10:29:17.424Z,35
2017-01-08T10:29:58.016Z,35
2017-01-08T10:30:38.539Z,35
2017-01-08T10:31:19.452Z,35
2017-01-08T10:32:01.069Z,40
2017-01-08T10:32:41.626Z,45
2017-01-08T10:33:22.368Z,45
2017-01-08T10:34:03.188Z,45
2017-01-08T10:34:43.583Z,45
2017-01-08T10:35:24.404Z,45
2017-01-08T10:36:04.966Z,45
2017-01-08T10:36:45.546Z,40
2017-01-08T10:37:25.982Z,40
2017-01-08T10:38:07.238Z,35
2017-01-08T10:38:47.557Z,35
2017-01-08T10:39:28.063Z,35
2017-01-08T10:40:08.592Z,35
2017-01-08T10:40:49.117Z,35
2017-01-08T10:41:30.094Z,35
2017-01-08T10:42:10.873Z,35
2017-01-08T10:42:52.433Z,30
2017-01-08T10:43:32.903Z,30
2017-01-08T10:44:13.603Z,35
2017-01-08T10:44:54.251Z,35
2017-01-08T10:45:35.219Z,35
2017-01-08T10:46:16.055Z,30
2017-01-08T10:46:57.013Z,30
2017-01-08T10:47:37.963Z,30
2017-01-08T10:48:18.843Z,30
2017-01-08T10:48:59.688Z,30
2017-01-08T10:49:40.503Z,30
2017-01-08T10:50:21.055Z,30
2017-01-08T10:51:02.472Z,30
2017-01-08T10:51:42.986Z,35
2017-01-08T10:52:24.136Z,35
2017-01-08T10:53:04.684Z,35
2017-01-08T10:53:45.707Z,35
2017-01-08T10:54:26.054Z,35
2017-01-08T10:55:07.463Z,40
2017-01-08T10:55:47.966Z,40
2017-01-08T10:56:28.651Z,40